createdAt,value
2017-10-24T00:00:13.143Z,6.32
2017-10-24T00:01:25.781Z,6.28
2017-10-24T00:02:38.078Z,6.34
2017-10-24T00:03:50.393Z,6.31
2017-10-24T00:05:03.050Z,6.29
2017-10-24T00:06:15.360Z,6.28
2017-10-24T00:07:27.677Z,6.28
2017-10-24T00:08:39.979Z,6.29
2017-10-24T00:09:51.933Z,6.39
2017-10-24T00:11:04.202Z,6.36
2017-10-24T00:12:16.508Z,6.39
2017-10-24T00:13:28.800Z,6.46
2017-10-24T00:14:41.135Z,6.38
2017-10-24T00:15:53.446Z,6.49
2017-10-24T00:17:05.720Z,6.47
2017-10-24T00:18:17.371Z,6.47
2017-10-24T00:19:29.694Z,6.68
2017-10-24T00:20:41.336Z,6.64
2017-10-24T00:21:53.335Z,6.62
2017-10-24T00:23:05.320Z,6.7
2017-10-24T00:24:17.948Z,6.64
2017-10-24T00:25:30.240Z,6.78
2017-10-24T00:26:42.546Z,6.83
2017-10-24T00:27:54.845Z,6.78
2017-10-24T00:29:07.749Z,6.86
2017-10-24T00:30:20.390Z,6.89
2017-10-24T00:31:32.374Z,6.85
2017-10-24T00:32:44.697Z,6.87
2017-10-24T00:33:57.008Z,6.97
2017-10-24T00:35:09.333Z,7.04
2017-10-24T00:36:21.987Z,7.04
2017-10-24T00:37:34.276Z,7.1
2017-10-24T00:38:46.260Z,7.08
2017-10-24T00:39:58.569Z,7.13
2017-10-24T00:41:10.241Z,7.19
2017-10-24T00:42:22.230Z,7.08
2017-10-24T00:43:34.228Z,7.21
2017-10-24T00:44:46.538Z,7.26
2017-10-24T00:45:59.146Z,7.18
2017-10-24T00:47:11.784Z,7.23
2017-10-24T00:48:24.405Z,7.26
2017-10-24T00:49:37.038Z,7.26
2017-10-24T00:50:49.671Z,7.28
2017-10-24T00:52:02.289Z,7.28
2017-10-24T00:53:14.597Z,7.39
2017-10-24T00:54:26.895Z,7.32
2017-10-24T00:55:38.860Z,7.39
2017-10-24T00:56:51.458Z,7.51
2017-10-24T00:58:03.745Z,7.5
2017-10-24T00:59:16.400Z,7.51
2017-10-24T01:00:29.026Z,7.5
2017-10-24T01:01:41.919Z,7.55
2017-10-24T01:02:54.553Z,7.48
2017-10-24T01:04:06.858Z,7.53
2017-10-24T01:05:19.130Z,7.51
2017-10-24T01:06:31.768Z,7.56
2017-10-24T01:07:44.398Z,7.5
2017-10-24T01:08:57.034Z,7.53
2017-10-24T01:10:09.658Z,7.48
2017-10-24T01:11:21.971Z,7.48
2017-10-24T01:12:34.625Z,7.47
2017-10-24T01:13:46.597Z,7.51
2017-10-24T01:14:58.262Z,7.48
2017-10-24T01:16:10.908Z,7.58
2017-10-24T01:17:23.209Z,7.47
2017-10-24T01:18:35.824Z,7.55
2017-10-24T01:19:48.453Z,7.48
2017-10-24T01:21:00.765Z,7.4
2017-10-24T01:22:13.395Z,7.4
2017-10-24T01:23:25.708Z,7.41
2017-10-24T01:24:37.702Z,7.43
2017-10-24T01:25:50.330Z,7.44
2017-10-24T01:27:02.639Z,7.47
2017-10-24T01:28:15.289Z,7.43
2017-10-24T01:29:27.588Z,7.48
2017-10-24T01:30:40.237Z,7.48
2017-10-24T01:31:52.904Z,7.51
2017-10-24T01:33:05.550Z,7.48
2017-10-24T01:34:17.550Z,7.5
2017-10-24T01:35:30.196Z,7.51
2017-10-24T01:36:42.837Z,7.53
2017-10-24T01:37:55.458Z,7.5
2017-10-24T01:39:08.100Z,7.47
2017-10-24T01:40:20.417Z,7.46
2017-10-24T01:41:32.724Z,7.56
2017-10-24T01:42:45.366Z,7.62
2017-10-24T01:43:57.682Z,7.67
2017-10-24T01:45:10.303Z,7.66
2017-10-24T01:46:22.973Z,7.7
2017-10-24T01:47:35.298Z,7.72
2017-10-24T01:48:47.612Z,7.62
2017-10-24T01:50:00.241Z,7.72
2017-10-24T01:51:13.164Z,7.8
2017-10-24T01:52:25.806Z,7.78
2017-10-24T01:53:38.424Z,7.74
2017-10-24T01:54:51.049Z,7.8
2017-10-24T01:56:03.936Z,7.9
2017-10-24T01:57:16.569Z,7.84
2017-10-24T01:58:28.872Z,7.85
2017-10-24T01:59:41.500Z,7.88
2017-10-24T02:00:54.142Z,7.84
2017-10-24T02:02:06.774Z,7.88
2017-10-24T02:03:19.412Z,7.95
2017-10-24T02:04:31.711Z,7.95
2017-10-24T02:05:44.360Z,7.98
2017-10-24T02:06:57.021Z,7.95
2017-10-24T02:08:09.369Z,7.93
2017-10-24T02:09:21.690Z,8.02
2017-10-24T02:10:34.307Z,8.01
2017-10-24T02:11:46.635Z,8.01
2017-10-24T02:12:59.264Z,8.03
2017-10-24T02:14:11.570Z,8.02
2017-10-24T02:15:23.872Z,8.09
2017-10-24T02:16:36.493Z,8.13
2017-10-24T02:17:48.816Z,8.11
2017-10-24T02:19:00.814Z,8.14
2017-10-24T02:20:13.105Z,8.14
2017-10-24T02:21:25.772Z,8.05
2017-10-24T02:22:38.403Z,8.27
2017-10-24T02:23:50.714Z,8.24
2017-10-24T02:25:03.026Z,8.24
2017-10-24T02:26:15.013Z,8.23
2017-10-24T02:27:27.328Z,8.28
2017-10-24T02:28:39.972Z,8.26
2017-10-24T02:29:52.572Z,8.26
2017-10-24T02:31:04.561Z,8.27
2017-10-24T02:32:16.862Z,8.31
2017-10-24T02:33:29.183Z,8.23
2017-10-24T02:34:41.830Z,8.23
2017-10-24T02:35:54.449Z,8.23
2017-10-24T02:37:06.744Z,8.24
2017-10-24T02:38:18.712Z,8.32
2017-10-24T02:39:31.357Z,8.27
2017-10-24T02:40:43.665Z,8.31
2017-10-24T02:41:56.315Z,8.27
2017-10-24T02:43:08.312Z,8.27
2017-10-24T02:44:20.939Z,8.21
2017-10-24T02:45:33.586Z,8.31
2017-10-24T02:46:46.236Z,8.31
2017-10-24T02:47:58.547Z,8.26
2017-10-24T02:49:11.203Z,8.28
2017-10-24T02:50:23.517Z,8.21
2017-10-24T02:51:35.508Z,8.28
2017-10-24T02:52:47.805Z,8.26
2017-10-24T02:54:00.436Z,8.24
2017-10-24T02:55:13.100Z,8.28
2017-10-24T02:56:25.746Z,8.28
2017-10-24T02:57:37.724Z,8.28
2017-10-24T02:58:50.012Z,8.27
2017-10-24T03:00:02.650Z,8.34
2017-10-24T03:01:14.637Z,8.28
2017-10-24T03:02:27.253Z,8.27
2017-10-24T03:03:39.215Z,8.24
2017-10-24T03:04:51.569Z,8.28
2017-10-24T03:06:04.194Z,8.45
2017-10-24T03:07:16.489Z,8.36
2017-10-24T03:08:28.808Z,8.39
2017-10-24T03:09:41.457Z,8.39
2017-10-24T03:10:53.749Z,8.41
2017-10-24T03:12:06.045Z,8.45
2017-10-24T03:13:18.011Z,8.46
2017-10-24T03:14:30.327Z,8.36
2017-10-24T03:15:42.664Z,8.44
2017-10-24T03:16:54.953Z,8.45
2017-10-24T03:18:07.269Z,8.41
2017-10-24T03:19:19.888Z,8.45
2017-10-24T03:20:32.192Z,8.45
2017-10-24T03:21:44.516Z,8.54
2017-10-24T03:22:56.508Z,8.54
2017-10-24T03:24:08.482Z,8.5
2017-10-24T03:25:20.765Z,8.59
2017-10-24T03:26:33.411Z,8.49
2017-10-24T03:27:46.036Z,8.53
2017-10-24T03:28:58.648Z,8.53
2017-10-24T03:30:10.592Z,8.59
2017-10-24T03:31:22.877Z,8.6
2017-10-24T03:32:35.197Z,8.56
2017-10-24T03:33:47.824Z,8.59
2017-10-24T03:35:00.463Z,8.56
2017-10-24T03:36:12.773Z,8.61
2017-10-24T03:37:25.088Z,8.59
2017-10-24T03:38:37.714Z,8.6
2017-10-24T03:39:49.685Z,8.71
2017-10-24T03:41:01.669Z,8.66
2017-10-24T03:42:14.305Z,8.68
2017-10-24T03:43:26.285Z,8.69
2017-10-24T03:44:38.867Z,8.69
2017-10-24T03:45:51.170Z,8.68
2017-10-24T03:47:03.477Z,8.69
2017-10-24T03:48:15.806Z,8.77
2017-10-24T03:49:27.830Z,8.78
2017-10-24T03:50:40.109Z,8.79
2017-10-24T03:51:52.774Z,8.78
2017-10-24T03:53:05.420Z,8.74
2017-10-24T03:54:18.045Z,8.77
2017-10-24T03:55:30.366Z,8.74
2017-10-24T03:56:42.375Z,8.74
2017-10-24T03:57:54.366Z,8.79
2017-10-24T03:59:06.351Z,8.82
2017-10-24T04:00:18.669Z,8.84
2017-10-24T04:01:30.989Z,8.75
2017-10-24T04:02:43.632Z,8.95
2017-10-24T04:03:56.248Z,8.75
2017-10-24T04:05:08.923Z,8.82
2017-10-24T04:06:20.939Z,8.86
2017-10-24T04:07:33.231Z,8.89
2017-10-24T04:08:45.535Z,8.89
2017-10-24T04:09:57.843Z,8.82
2017-10-24T04:11:10.126Z,8.86
2017-10-24T04:12:22.127Z,8.89
2017-10-24T04:13:34.746Z,8.89
2017-10-24T04:14:46.417Z,8.97
2017-10-24T04:15:58.755Z,8.95
2017-10-24T04:17:11.308Z,8.96
2017-10-24T04:18:23.279Z,8.95
2017-10-24T04:19:35.563Z,8.99
2017-10-24T04:20:47.573Z,8.89
2017-10-24T04:22:00.219Z,8.99
2017-10-24T04:23:12.517Z,9
2017-10-24T04:24:25.185Z,8.97
2017-10-24T04:25:37.153Z,8.95
2017-10-24T04:26:49.792Z,9.02
2017-10-24T04:28:01.769Z,8.99
2017-10-24T04:29:14.410Z,8.95
2017-10-24T04:30:26.734Z,8.99
2017-10-24T04:31:39.057Z,8.99
2017-10-24T04:32:51.678Z,9.05
2017-10-24T04:34:04.318Z,9
2017-10-24T04:35:16.639Z,9.02
2017-10-24T04:36:29.244Z,9.05
2017-10-24T04:37:41.217Z,9.12
2017-10-24T04:38:54.121Z,9.08
2017-10-24T04:40:06.814Z,9.05
2017-10-24T04:41:18.814Z,9.02
2017-10-24T04:42:31.171Z,9.02
2017-10-24T04:43:43.470Z,9.09
2017-10-24T04:44:56.081Z,9.13
2017-10-24T04:46:08.695Z,9.12
2017-10-24T04:47:21.017Z,9.21
2017-10-24T04:48:33.341Z,9.19
2017-10-24T04:49:45.006Z,9.08
2017-10-24T04:50:57.653Z,9.11
2017-10-24T04:52:09.978Z,9.18
2017-10-24T04:53:22.299Z,9.21
2017-10-24T04:54:34.940Z,9.15
2017-10-24T04:55:47.244Z,9.11
2017-10-24T04:56:59.885Z,9.19
2017-10-24T04:58:12.516Z,9.02
2017-10-24T04:59:24.506Z,9.11
2017-10-24T05:00:37.057Z,9.18
2017-10-24T05:01:49.368Z,9.15
2017-10-24T05:03:02.024Z,9.11
2017-10-24T05:04:14.659Z,9.03
2017-10-24T05:05:27.305Z,9.09
2017-10-24T05:06:39.968Z,9.16
2017-10-24T05:07:52.591Z,9.02
2017-10-24T05:09:05.213Z,9.19
2017-10-24T05:10:17.822Z,9.16
2017-10-24T05:11:30.162Z,9.16
2017-10-24T05:12:42.128Z,9.19
2017-10-24T05:13:54.771Z,9.15
2017-10-24T05:15:07.075Z,9.16
2017-10-24T05:16:19.397Z,9.18
2017-10-24T05:17:31.057Z,9.18
2017-10-24T05:18:43.708Z,9.18
2017-10-24T05:19:55.702Z,9.19
2017-10-24T05:21:08.040Z,9.16
2017-10-24T05:22:20.896Z,9.18
2017-10-24T05:23:33.219Z,9.21
2017-10-24T05:24:45.521Z,9.29
2017-10-24T05:25:58.113Z,9.24
2017-10-24T05:27:10.755Z,9.16
2017-10-24T05:28:22.719Z,9.16
2017-10-24T05:29:35.022Z,9.26
2017-10-24T05:30:47.661Z,9.24
2017-10-24T05:31:59.940Z,9.29
2017-10-24T05:33:12.207Z,9.27
2017-10-24T05:34:24.159Z,9.27
2017-10-24T05:35:36.793Z,9.27
2017-10-24T05:36:49.415Z,9.31
2017-10-24T05:38:02.043Z,9.27
2017-10-24T05:39:14.657Z,9.31
2017-10-24T05:40:26.975Z,9.39
2017-10-24T05:41:39.279Z,9.39
2017-10-24T05:42:51.900Z,9.33
2017-10-24T05:44:03.891Z,9.4
2017-10-24T05:45:16.520Z,9.34
2017-10-24T05:46:29.154Z,9.39
2017-10-24T05:47:41.770Z,9.31
2017-10-24T05:48:54.394Z,9.48
2017-10-24T05:50:07.042Z,9.3
2017-10-24T05:51:19.049Z,9.34
2017-10-24T05:52:31.352Z,9.44
2017-10-24T05:53:44.003Z,9.44
2017-10-24T05:54:56.634Z,9.48
2017-10-24T05:56:08.958Z,9.4
2017-10-24T05:57:20.944Z,9.48
2017-10-24T05:58:32.935Z,9.51
2017-10-24T05:59:45.559Z,9.48
2017-10-24T06:00:57.855Z,9.52
2017-10-24T06:02:09.829Z,9.44
2017-10-24T06:03:22.467Z,9.47
2017-10-24T06:04:35.070Z,9.48
2017-10-24T06:05:47.355Z,9.49
2017-10-24T06:06:59.669Z,9.47
2017-10-24T06:08:12.304Z,9.48
2017-10-24T06:09:24.630Z,9.51
2017-10-24T06:10:37.239Z,9.47
2017-10-24T06:11:49.901Z,9.48
2017-10-24T06:13:02.512Z,9.51
2017-10-24T06:14:15.150Z,9.51
2017-10-24T06:15:27.777Z,9.51
2017-10-24T06:16:40.406Z,9.54
2017-10-24T06:17:52.726Z,9.59
2017-10-24T06:19:05.355Z,9.66
2017-10-24T06:20:17.962Z,9.62
2017-10-24T06:21:30.281Z,9.62
2017-10-24T06:22:42.931Z,9.67
2017-10-24T06:23:55.565Z,9.63
2017-10-24T06:25:07.899Z,9.62
2017-10-24T06:26:19.535Z,9.67
2017-10-24T06:27:32.142Z,9.67
2017-10-24T06:28:44.754Z,9.67
2017-10-24T06:29:57.379Z,9.7
2017-10-24T06:31:09.341Z,9.72
2017-10-24T06:32:21.967Z,9.62
2017-10-24T06:33:34.269Z,9.74
2017-10-24T06:34:46.883Z,9.77
2017-10-24T06:35:59.177Z,9.74
2017-10-24T06:37:11.158Z,9.77
2017-10-24T06:38:23.756Z,9.76
2017-10-24T06:39:36.386Z,9.72
2017-10-24T06:40:49.036Z,9.74
2017-10-24T06:42:01.007Z,9.77
2017-10-24T06:43:13.632Z,9.77
2017-10-24T06:44:26.198Z,9.87
2017-10-24T06:45:38.519Z,9.81
2017-10-24T06:46:51.121Z,9.84
2017-10-24T06:48:03.442Z,9.85
2017-10-24T06:49:15.765Z,9.85
2017-10-24T06:50:28.070Z,9.91
2017-10-24T06:51:40.048Z,9.87
2017-10-24T06:52:52.064Z,9.92
2017-10-24T06:54:04.366Z,9.97
2017-10-24T06:55:16.984Z,9.97
2017-10-24T06:56:29.607Z,9.99
2017-10-24T06:57:42.237Z,9.99
2017-10-24T06:58:57.574Z,9.97
2017-10-24T07:00:10.495Z,10.13
2017-10-24T07:01:22.820Z,10.17
2017-10-24T07:02:35.132Z,10.12
2017-10-24T07:03:47.104Z,10.13
2017-10-24T07:04:59.702Z,10.12
2017-10-24T07:06:11.970Z,10.12
2017-10-24T07:07:24.614Z,10.2
2017-10-24T07:08:37.243Z,10.24
2017-10-24T07:09:49.863Z,10.24
2017-10-24T07:11:02.177Z,10.25
2017-10-24T07:12:14.152Z,10.3
2017-10-24T07:13:26.423Z,10.38
2017-10-24T07:14:39.047Z,10.36
2017-10-24T07:15:51.364Z,10.33
2017-10-24T07:17:03.633Z,10.39
2017-10-24T07:18:15.273Z,10.41
2017-10-24T07:19:27.267Z,10.55
2017-10-24T07:20:39.576Z,10.48
2017-10-24T07:21:51.869Z,10.51
2017-10-24T07:23:04.192Z,10.51
2017-10-24T07:24:16.511Z,10.57
2017-10-24T07:25:28.809Z,10.59
2017-10-24T07:26:40.474Z,10.59
2017-10-24T07:27:52.793Z,10.58
2017-10-24T07:29:04.786Z,10.61
2017-10-24T07:30:17.433Z,10.49
2017-10-24T07:31:30.080Z,10.48
2017-10-24T07:32:42.052Z,10.61
2017-10-24T07:33:54.041Z,10.59
2017-10-24T07:35:06.369Z,10.57
2017-10-24T07:36:18.344Z,10.57
2017-10-24T07:37:30.634Z,10.53
2017-10-24T07:38:43.260Z,10.58
2017-10-24T07:39:55.898Z,10.55
2017-10-24T07:41:08.529Z,10.48
2017-10-24T07:42:21.194Z,10.55
2017-10-24T07:43:33.817Z,10.51
2017-10-24T07:44:46.134Z,10.48
2017-10-24T07:45:58.455Z,10.57
2017-10-24T07:47:10.800Z,10.59
2017-10-24T07:48:23.396Z,10.59
2017-10-24T07:49:35.413Z,10.58
2017-10-24T07:50:47.392Z,10.62
2017-10-24T07:52:00.013Z,10.69
2017-10-24T07:53:12.653Z,10.71
2017-10-24T07:54:25.292Z,10.59
2017-10-24T07:55:37.937Z,10.62
2017-10-24T07:56:50.240Z,10.71
2017-10-24T07:58:02.874Z,10.71
2017-10-24T07:59:15.491Z,10.76
2017-10-24T08:00:27.845Z,10.65
2017-10-24T08:01:39.866Z,10.64
2017-10-24T08:02:51.843Z,10.67
2017-10-24T08:04:04.481Z,10.69
2017-10-24T08:05:17.110Z,10.75
2017-10-24T08:06:29.753Z,10.72
2017-10-24T08:07:42.080Z,10.69
2017-10-24T08:08:54.714Z,10.79
2017-10-24T08:10:07.366Z,10.79
2017-10-24T08:11:19.656Z,10.76
2017-10-24T08:12:31.655Z,10.77
2017-10-24T08:13:43.959Z,10.77
2017-10-24T08:14:56.617Z,10.8
2017-10-24T08:16:08.596Z,10.83
2017-10-24T08:17:20.885Z,10.82
2017-10-24T08:18:33.208Z,10.87
2017-10-24T08:19:45.531Z,10.89
2017-10-24T08:20:57.802Z,10.84
2017-10-24T08:22:09.480Z,10.92
2017-10-24T08:23:22.113Z,10.87
2017-10-24T08:24:34.757Z,10.94
2017-10-24T08:25:46.752Z,11.05
2017-10-24T08:26:58.411Z,11.05
2017-10-24T08:28:10.399Z,11.12
2017-10-24T08:29:22.701Z,11.1
2017-10-24T08:30:34.692Z,11.13
2017-10-24T08:31:47.010Z,11.2
2017-10-24T08:32:59.625Z,11.26
2017-10-24T08:34:12.261Z,11.27
2017-10-24T08:35:24.206Z,11.31
2017-10-24T08:36:36.493Z,11.38
2017-10-24T08:37:48.167Z,11.48
2017-10-24T08:39:00.485Z,11.45
2017-10-24T08:40:12.809Z,11.49
2017-10-24T08:41:25.425Z,11.55
2017-10-24T08:42:37.738Z,11.55
2017-10-24T08:43:50.042Z,11.62
2017-10-24T08:45:02.366Z,11.65
2017-10-24T08:46:14.984Z,11.7
2017-10-24T08:47:27.305Z,11.73
2017-10-24T08:48:39.625Z,11.88
2017-10-24T08:49:53.084Z,11.86
2017-10-24T08:51:05.733Z,11.93
2017-10-24T08:52:17.711Z,11.91
2017-10-24T08:53:30.057Z,11.91
2017-10-24T08:54:42.375Z,12.02
2017-10-24T08:55:54.704Z,12.1
2017-10-24T08:57:07.045Z,12.21
2017-10-24T08:58:19.685Z,12.17
2017-10-24T08:59:32.230Z,12.26
2017-10-24T09:00:44.560Z,12.33
2017-10-24T09:01:57.206Z,12.45
2017-10-24T09:03:08.553Z,12.58
2017-10-24T09:04:21.186Z,12.57
2017-10-24T09:05:33.510Z,12.68
2017-10-24T09:06:45.814Z,12.78
2017-10-24T09:07:58.107Z,12.76
2017-10-24T09:09:10.772Z,12.83
2017-10-24T09:10:23.118Z,12.83
2017-10-24T09:11:35.441Z,12.86
2017-10-24T09:12:48.080Z,12.94
2017-10-24T09:13:59.737Z,12.99
2017-10-24T09:15:11.083Z,12.99
2017-10-24T09:16:23.413Z,13.19
2017-10-24T09:17:36.056Z,13.21
2017-10-24T09:18:48.382Z,13.17
2017-10-24T09:20:00.387Z,13.27
2017-10-24T09:21:12.662Z,13.21
2017-10-24T09:22:25.291Z,13.2
2017-10-24T09:23:37.633Z,13.36
2017-10-24T09:24:49.935Z,13.46
2017-10-24T09:26:01.915Z,13.54
2017-10-24T09:27:14.564Z,13.57
2017-10-24T09:28:26.890Z,13.57
2017-10-24T09:29:39.201Z,13.68
2017-10-24T09:30:51.198Z,13.73
2017-10-24T09:32:03.822Z,13.76
2017-10-24T09:33:16.469Z,13.83
2017-10-24T09:34:28.467Z,13.86
2017-10-24T09:35:40.450Z,13.97
2017-10-24T09:36:52.457Z,14.05
2017-10-24T09:38:04.759Z,14.04
2017-10-24T09:39:17.397Z,14.08
2017-10-24T09:40:29.414Z,14.07
2017-10-24T09:41:42.040Z,14.12
2017-10-24T09:42:54.687Z,14.12
2017-10-24T09:44:07.019Z,14.16
2017-10-24T09:45:19.315Z,14.03
2017-10-24T09:46:31.624Z,14.08
2017-10-24T09:47:43.945Z,14.12
2017-10-24T09:48:55.935Z,14.05
2017-10-24T09:50:07.616Z,14.03
2017-10-24T09:51:20.251Z,14
2017-10-24T09:52:32.245Z,14
2017-10-24T09:53:44.894Z,14.04
2017-10-24T09:54:57.532Z,13.93
2017-10-24T09:56:09.535Z,13.86
2017-10-24T09:57:22.185Z,13.87
2017-10-24T09:58:34.547Z,13.87
2017-10-24T09:59:46.893Z,13.91
2017-10-24T10:00:59.193Z,13.98
2017-10-24T10:02:11.513Z,13.98
2017-10-24T10:03:23.830Z,14.07
2017-10-24T10:04:36.129Z,14.08
2017-10-24T10:05:48.442Z,14.15
2017-10-24T10:07:00.790Z,14.16
2017-10-24T10:08:12.796Z,14.26
2017-10-24T10:09:24.790Z,14.2
2017-10-24T10:10:36.821Z,14.23
2017-10-24T10:11:48.791Z,14.25
2017-10-24T10:13:01.120Z,14.28
2017-10-24T10:14:13.445Z,14.23
2017-10-24T10:15:26.061Z,14.15
2017-10-24T10:16:38.345Z,14.13
2017-10-24T10:17:50.680Z,14.13
2017-10-24T10:19:02.660Z,14.13
2017-10-24T10:20:15.002Z,14.07
2017-10-24T10:21:27.623Z,13.97
2017-10-24T10:22:39.932Z,14
2017-10-24T10:23:52.572Z,13.85
2017-10-24T10:25:04.908Z,13.86
2017-10-24T10:26:17.222Z,13.83
2017-10-24T10:27:29.537Z,13.8
2017-10-24T10:28:41.860Z,13.8
2017-10-24T10:29:53.842Z,13.8
2017-10-24T10:31:05.817Z,13.82
2017-10-24T10:32:18.446Z,13.8
2017-10-24T10:33:30.770Z,13.79
2017-10-24T10:34:43.093Z,13.78
2017-10-24T10:35:55.720Z,13.79
2017-10-24T10:37:08.037Z,13.89
2017-10-24T10:38:20.679Z,13.93
2017-10-24T10:39:33.273Z,13.86
2017-10-24T10:40:45.263Z,13.85
2017-10-24T10:41:57.568Z,13.95
2017-10-24T10:43:10.209Z,13.8
2017-10-24T10:44:22.853Z,13.86
2017-10-24T10:45:34.845Z,13.89
2017-10-24T10:46:47.135Z,13.87
2017-10-24T10:47:59.115Z,13.83
2017-10-24T10:49:11.739Z,13.78
2017-10-24T10:50:24.377Z,13.76
2017-10-24T10:51:37.002Z,13.8
2017-10-24T10:52:49.310Z,13.62
2017-10-24T10:54:01.602Z,13.67
2017-10-24T10:55:13.917Z,13.64
2017-10-24T10:56:26.568Z,13.67
2017-10-24T10:57:38.868Z,13.58
2017-10-24T10:58:51.154Z,13.6
2017-10-24T11:00:03.783Z,13.49
2017-10-24T11:01:16.405Z,13.49
2017-10-24T11:02:29.052Z,13.42
2017-10-24T11:03:41.033Z,13.33
2017-10-24T11:04:53.658Z,13.42
2017-10-24T11:06:05.971Z,13.4
2017-10-24T11:07:17.971Z,13.42
2017-10-24T11:08:29.969Z,13.47
2017-10-24T11:09:42.324Z,13.47
2017-10-24T11:10:54.328Z,13.47
2017-10-24T11:12:06.277Z,13.57
2017-10-24T11:13:18.914Z,13.58
2017-10-24T11:14:31.546Z,13.71
2017-10-24T11:15:43.873Z,13.64
2017-10-24T11:16:56.164Z,13.68
2017-10-24T11:18:08.482Z,13.71
2017-10-24T11:19:21.133Z,13.78
2017-10-24T11:20:34.047Z,13.79
2017-10-24T11:21:46.368Z,13.8
2017-10-24T11:22:57.700Z,13.86
2017-10-24T11:24:09.993Z,13.98
2017-10-24T11:25:22.658Z,14.07
2017-10-24T11:26:34.661Z,14.03
2017-10-24T11:27:46.672Z,14.13
2017-10-24T11:28:58.997Z,14.22
2017-10-24T11:30:11.292Z,14.3
2017-10-24T11:31:23.285Z,14.23
2017-10-24T11:32:35.941Z,14.26
2017-10-24T11:33:48.283Z,14.2
2017-10-24T11:35:00.271Z,14.2
2017-10-24T11:36:11.942Z,14.3
2017-10-24T11:37:24.273Z,14.2
2017-10-24T11:38:36.589Z,14.33
2017-10-24T11:39:48.561Z,14.28
2017-10-24T11:41:01.199Z,14.28
2017-10-24T11:42:13.174Z,14.25
2017-10-24T11:43:25.476Z,14.36
2017-10-24T11:44:37.436Z,14.33
2017-10-24T11:45:50.042Z,14.34
2017-10-24T11:47:02.360Z,14.36
2017-10-24T11:48:15.021Z,14.33
2017-10-24T11:49:27.656Z,14.36
2017-10-24T11:50:39.640Z,14.37
2017-10-24T11:51:51.944Z,14.31
2017-10-24T11:53:04.264Z,14.34
2017-10-24T11:54:16.912Z,14.37
2017-10-24T11:55:29.540Z,14.43
2017-10-24T11:56:42.176Z,14.43
2017-10-24T11:57:54.517Z,14.41
2017-10-24T11:59:06.823Z,14.56
2017-10-24T12:00:19.131Z,14.61
2017-10-24T12:01:31.783Z,14.52
2017-10-24T12:02:44.085Z,14.66
2017-10-24T12:03:56.399Z,14.67
2017-10-24T12:05:09.042Z,14.82
2017-10-24T12:06:21.665Z,14.79
2017-10-24T12:07:34.290Z,14.82
2017-10-24T12:08:46.298Z,14.89
2017-10-24T12:09:58.619Z,14.9
2017-10-24T12:11:10.620Z,14.82
2017-10-24T12:12:22.667Z,14.89
2017-10-24T12:13:34.983Z,14.89
2017-10-24T12:14:47.327Z,14.73
2017-10-24T12:15:59.955Z,14.77
2017-10-24T12:17:12.604Z,14.81
2017-10-24T12:18:24.910Z,14.77
2017-10-24T12:19:37.517Z,14.74
2017-10-24T12:20:50.143Z,14.81
2017-10-24T12:22:02.451Z,14.9
2017-10-24T12:23:14.758Z,14.86
2017-10-24T12:24:27.057Z,14.87
2017-10-24T12:25:39.395Z,14.94
2017-10-24T12:26:52.055Z,14.87
2017-10-24T12:28:04.691Z,14.9
2017-10-24T12:29:17.350Z,14.99
2017-10-24T12:30:30.001Z,14.99
2017-10-24T12:31:42.305Z,15.04
2017-10-24T12:32:54.923Z,15.05
2017-10-24T12:34:07.237Z,14.99
2017-10-24T12:35:19.536Z,14.99
2017-10-24T12:36:32.172Z,14.94
2017-10-24T12:37:44.823Z,14.9
2017-10-24T12:38:57.128Z,14.94
2017-10-24T12:40:09.764Z,14.89
2017-10-24T12:41:22.439Z,14.93
2017-10-24T12:42:35.063Z,14.87
2017-10-24T12:43:47.367Z,14.89
2017-10-24T12:44:59.347Z,14.74
2017-10-24T12:46:11.992Z,14.82
2017-10-24T12:47:23.992Z,14.79
2017-10-24T12:48:36.315Z,14.86
2017-10-24T12:49:48.943Z,14.81
2017-10-24T12:51:01.297Z,14.74
2017-10-24T12:52:13.623Z,14.89
2017-10-24T12:53:25.945Z,14.82
2017-10-24T12:54:38.266Z,14.93
2017-10-24T12:55:50.591Z,14.9
2017-10-24T12:57:02.898Z,14.92
2017-10-24T12:58:14.901Z,14.94
2017-10-24T12:59:27.553Z,14.99
2017-10-24T13:00:40.203Z,15.02
2017-10-24T13:01:52.189Z,15.08
2017-10-24T13:03:04.825Z,15.07
2017-10-24T13:04:17.457Z,15.11
2017-10-24T13:05:30.094Z,15.12
2017-10-24T13:06:42.749Z,15.04
2017-10-24T13:07:54.419Z,15.23
2017-10-24T13:09:06.735Z,15.18
2017-10-24T13:10:19.361Z,15.22
2017-10-24T13:11:31.985Z,15.23
2017-10-24T13:12:43.971Z,15.14
2017-10-24T13:13:56.616Z,15.27
2017-10-24T13:15:09.242Z,15.27
2017-10-24T13:16:21.575Z,15.25
2017-10-24T13:17:33.551Z,15.26
2017-10-24T13:18:45.860Z,15.27
2017-10-24T13:19:58.510Z,15.32
2017-10-24T13:21:10.837Z,15.29
2017-10-24T13:22:23.438Z,15.27
2017-10-24T13:23:36.069Z,15.3
2017-10-24T13:24:48.075Z,15.29
2017-10-24T13:26:00.352Z,15.3
2017-10-24T13:27:12.673Z,15.3
2017-10-24T13:28:25.272Z,15.3
2017-10-24T13:29:37.890Z,15.3
2017-10-24T13:30:50.482Z,15.27
2017-10-24T13:32:03.124Z,15.33
2017-10-24T13:33:15.134Z,15.26
2017-10-24T13:34:27.748Z,15.3
2017-10-24T13:35:40.089Z,15.3
2017-10-24T13:36:52.415Z,15.3
2017-10-24T13:38:04.426Z,15.3
2017-10-24T13:39:16.775Z,15.27
2017-10-24T13:40:29.404Z,15.26
2017-10-24T13:41:41.397Z,15.27
2017-10-24T13:42:53.714Z,15.29
2017-10-24T13:44:06.017Z,15.29
2017-10-24T13:45:18.312Z,15.18
2017-10-24T13:46:30.329Z,15.15
2017-10-24T13:47:42.972Z,15.14
2017-10-24T13:48:55.266Z,15.17
2017-10-24T13:50:07.570Z,15.14
2017-10-24T13:51:20.203Z,15.14
2017-10-24T13:52:32.503Z,15.22
2017-10-24T13:53:44.845Z,15.27
2017-10-24T13:54:57.149Z,15.17
2017-10-24T13:56:09.812Z,15.25
2017-10-24T13:57:22.114Z,15.18
2017-10-24T13:58:34.730Z,15.17
2017-10-24T13:59:47.385Z,15.1
2017-10-24T14:01:00.031Z,15.05
2017-10-24T14:02:12.022Z,15.05
2017-10-24T14:03:24.632Z,15.02
2017-10-24T14:04:37.285Z,15
2017-10-24T14:05:49.259Z,14.96
2017-10-24T14:07:01.575Z,14.94
2017-10-24T14:08:14.203Z,14.92
2017-10-24T14:09:26.826Z,14.9
2017-10-24T14:10:39.488Z,14.9
2017-10-24T14:11:51.789Z,14.81
2017-10-24T14:13:04.425Z,14.79
2017-10-24T14:14:17.059Z,14.81
2017-10-24T14:15:29.713Z,14.71
2017-10-24T14:16:41.694Z,14.73
2017-10-24T14:17:53.994Z,14.74
2017-10-24T14:19:06.637Z,14.7
2017-10-24T14:20:18.632Z,14.66
2017-10-24T14:21:31.252Z,14.66
2017-10-24T14:22:43.581Z,14.66
2017-10-24T14:23:56.217Z,14.62
2017-10-24T14:25:08.555Z,14.55
2017-10-24T14:26:20.877Z,14.56
2017-10-24T14:27:33.480Z,14.49
2017-10-24T14:28:45.479Z,14.53
2017-10-24T14:29:57.452Z,14.53
2017-10-24T14:31:10.084Z,14.44
2017-10-24T14:32:22.709Z,14.41
2017-10-24T14:33:35.339Z,14.43
2017-10-24T14:34:47.988Z,14.37
2017-10-24T14:36:00.274Z,14.31
2017-10-24T14:37:12.909Z,14.41
2017-10-24T14:38:24.891Z,14.25
2017-10-24T14:39:37.530Z,14.26
2017-10-24T14:40:50.182Z,14.18
2017-10-24T14:42:02.524Z,14.3
2017-10-24T14:43:14.842Z,14.15
2017-10-24T14:44:27.465Z,14.19
2017-10-24T14:45:40.061Z,14.16
2017-10-24T14:46:52.374Z,14.08
2017-10-24T14:48:05.003Z,14.11
2017-10-24T14:49:17.334Z,14.11
2017-10-24T14:50:29.630Z,14.11
2017-10-24T14:51:42.256Z,14.05
2017-10-24T14:52:54.593Z,14
2017-10-24T14:54:06.903Z,14
2017-10-24T14:55:19.572Z,13.95
2017-10-24T14:56:32.220Z,13.94
2017-10-24T14:57:44.844Z,13.83
2017-10-24T14:58:56.518Z,13.85
2017-10-24T15:00:09.168Z,13.87
2017-10-24T15:01:21.492Z,13.94
2017-10-24T15:02:34.110Z,13.82
2017-10-24T15:03:46.442Z,13.79
2017-10-24T15:04:58.771Z,13.86
2017-10-24T15:06:10.750Z,13.83
2017-10-24T15:07:23.386Z,13.8
2017-10-24T15:08:35.727Z,13.79
2017-10-24T15:09:47.726Z,13.76
2017-10-24T15:11:00.028Z,13.7
2017-10-24T15:12:12.657Z,13.64
2017-10-24T15:13:24.983Z,13.65
2017-10-24T15:14:37.610Z,13.73
2017-10-24T15:15:50.213Z,13.67
2017-10-24T15:17:02.829Z,13.54
2017-10-24T15:18:15.472Z,13.55
2017-10-24T15:19:28.422Z,13.57
2017-10-24T15:20:41.081Z,13.58
2017-10-24T15:21:53.390Z,13.5
2017-10-24T15:23:06.051Z,13.49
2017-10-24T15:24:18.031Z,13.43
2017-10-24T15:25:30.023Z,13.4
2017-10-24T15:26:42.659Z,13.33
2017-10-24T15:27:55.289Z,13.3
2017-10-24T15:29:07.272Z,13.3
2017-10-24T15:30:19.596Z,13.27
2017-10-24T15:31:32.225Z,13.26
2017-10-24T15:32:44.903Z,13.27
2017-10-24T15:33:57.533Z,13.3
2017-10-24T15:35:10.157Z,13.27
2017-10-24T15:36:22.800Z,13.17
2017-10-24T15:37:35.446Z,13.2
2017-10-24T15:38:47.737Z,13.17
2017-10-24T15:40:00.044Z,13.23
2017-10-24T15:41:12.669Z,13.11
2017-10-24T15:42:25.291Z,13.08
2017-10-24T15:43:37.578Z,13.23
2017-10-24T15:44:49.569Z,13.13
2017-10-24T15:46:02.247Z,13.13
2017-10-24T15:47:14.872Z,13.17
2017-10-24T15:48:27.515Z,13.2